sensor_id;sensor_type;location;lat;lon;timestamp;P1;durP1;ratioP1;P2;durP2;ratioP2
15451;SDS011;7827;53.594;9.938;2022-11-21T00:00:18;41.33;;;26.13;;
15451;SDS011;7827;53.594;9.938;2022-11-21T00:02:48;38.97;;;25.23;;
15451;SDS011;7827;53.594;9.938;2022-11-21T00:05:17;40.03;;;25.87;;
15451;SDS011;7827;53.594;9.938;2022-11-21T00:07:45;39.63;;;25.13;;
15451;SDS011;7827;53.594;9.938;2022-11-21T00:10:15;35.27;;;24.07;;
15451;SDS011;7827;53.594;9.938;2022-11-21T00:12:43;36.87;;;22.93;;
15451;SDS011;7827;53.594;9.938;2022-11-21T00:15:13;38.83;;;24.77;;
15451;SDS011;7827;53.594;9.938;2022-11-21T00:17:41;34.70;;;25.20;;
15451;SDS011;7827;53.594;9.938;2022-11-21T00:20:11;34.53;;;23.07;;
15451;SDS011;7827;53.594;9.938;2022-11-21T00:22:42;34.77;;;23.10;;
15451;SDS011;7827;53.594;9.938;2022-11-21T00:25:11;34.40;;;24.13;;
15451;SDS011;7827;53.594;9.938;2022-11-21T00:27:40;35.63;;;24.77;;
15451;SDS011;7827;53.594;9.938;2022-11-21T00:30:09;34.07;;;24.30;;
15451;SDS011;7827;53.594;9.938;2022-11-21T00:32:38;38.17;;;24.10;;
15451;SDS011;7827;53.594;9.938;2022-11-21T00:35:07;33.87;;;23.40;;
15451;SDS011;7827;53.594;9.938;2022-11-21T00:37:38;36.23;;;23.63;;
15451;SDS011;7827;53.594;9.938;2022-11-21T00:40:07;35.23;;;23.50;;
15451;SDS011;7827;53.594;9.938;2022-11-21T00:42:37;41.90;;;26.30;;
15451;SDS011;7827;53.594;9.938;2022-11-21T00:45:06;37.93;;;26.57;;
15451;SDS011;7827;53.594;9.938;2022-11-21T00:47:35;39.43;;;25.97;;
15451;SDS011;7827;53.594;9.938;2022-11-21T00:50:04;40.73;;;25.77;;
15451;SDS011;7827;53.594;9.938;2022-11-21T00:52:33;43.17;;;27.90;;
15451;SDS011;7827;53.594;9.938;2022-11-21T00:55:03;44.10;;;26.73;;
15451;SDS011;7827;53.594;9.938;2022-11-21T00:57:32;41.37;;;25.63;;
15451;SDS011;7827;53.594;9.938;2022-11-21T01:00:00;45.53;;;26.17;;
15451;SDS011;7827;53.594;9.938;2022-11-21T01:02:30;42.60;;;25.73;;
15451;SDS011;7827;53.594;9.938;2022-11-21T01:04:59;40.87;;;25.73;;
15451;SDS011;7827;53.594;9.938;2022-11-21T01:07:27;38.57;;;27.10;;
15451;SDS011;7827;53.594;9.938;2022-11-21T01:09:56;38.63;;;24.83;;
15451;SDS011;7827;53.594;9.938;2022-11-21T01:12:26;40.13;;;26.03;;
15451;SDS011;7827;53.594;9.938;2022-11-21T01:14:55;40.20;;;25.63;;
15451;SDS011;7827;53.594;9.938;2022-11-21T01:17:23;39.43;;;26.30;;
15451;SDS011;7827;53.594;9.938;2022-11-21T01:19:52;39.37;;;26.17;;
15451;SDS011;7827;53.594;9.938;2022-11-21T01:22:21;41.30;;;25.90;;
15451;SDS011;7827;53.594;9.938;2022-11-21T01:24:50;42.40;;;26.47;;
15451;SDS011;7827;53.594;9.938;2022-11-21T01:27:18;42.30;;;26.47;;
15451;SDS011;7827;53.594;9.938;2022-11-21T01:29:48;40.67;;;27.00;;
15451;SDS011;7827;53.594;9.938;2022-11-21T01:32:17;39.53;;;25.90;;
15451;SDS011;7827;53.594;9.938;2022-11-21T01:34:46;40.90;;;26.00;;
15451;SDS011;7827;53.594;9.938;2022-11-21T01:37:15;43.23;;;26.37;;
15451;SDS011;7827;53.594;9.938;2022-11-21T01:39:43;42.27;;;26.10;;
15451;SDS011;7827;53.594;9.938;2022-11-21T01:42:12;37.07;;;24.60;;
15451;SDS011;7827;53.594;9.938;2022-11-21T01:44:45;36.40;;;24.70;;
15451;SDS011;7827;53.594;9.938;2022-11-21T01:47:18;42.40;;;26.50;;
15451;SDS011;7827;53.594;9.938;2022-11-21T01:49:49;37.47;;;25.10;;
15451;SDS011;7827;53.594;9.938;2022-11-21T01:52:22;43.27;;;25.40;;
15451;SDS011;7827;53.594;9.938;2022-11-21T01:54:55;39.67;;;25.20;;
15451;SDS011;7827;53.594;9.938;2022-11-21T01:57:30;36.40;;;23.63;;
15451;SDS011;7827;53.594;9.938;2022-11-21T02:00:09;38.30;;;24.37;;
15451;SDS011;7827;53.594;9.938;2022-11-21T02:02:42;34.77;;;23.17;;
15451;SDS011;7827;53.594;9.938;2022-11-21T02:05:16;36.60;;;23.77;;
15451;SDS011;7827;53.594;9.938;2022-11-21T02:07:48;32.00;;;21.97;;
15451;SDS011;7827;53.594;9.938;2022-11-21T02:10:21;35.87;;;22.47;;
15451;SDS011;7827;53.594;9.938;2022-11-21T02:12:51;33.37;;;22.37;;
15451;SDS011;7827;53.594;9.938;2022-11-21T02:15:26;32.67;;;21.83;;
15451;SDS011;7827;53.594;9.938;2022-11-21T02:17:57;32.30;;;21.97;;
15451;SDS011;7827;53.594;9.938;2022-11-21T02:20:27;34.67;;;22.03;;
15451;SDS011;7827;53.594;9.938;2022-11-21T02:22:58;31.83;;;21.00;;
15451;SDS011;7827;53.594;9.938;2022-11-21T02:25:40;34.43;;;21.57;;
15451;SDS011;7827;53.594;9.938;2022-11-21T02:28:10;32.83;;;21.80;;
15451;SDS011;7827;53.594;9.938;2022-11-21T02:30:43;31.57;;;21.07;;
15451;SDS011;7827;53.594;9.938;2022-11-21T02:33:12;31.73;;;19.30;;
15451;SDS011;7827;53.594;9.938;2022-11-21T02:35:40;28.63;;;20.50;;
15451;SDS011;7827;53.594;9.938;2022-11-21T02:38:12;29.37;;;19.80;;
15451;SDS011;7827;53.594;9.938;2022-11-21T02:40:49;27.20;;;18.37;;
15451;SDS011;7827;53.594;9.938;2022-11-21T02:43:27;29.17;;;19.10;;
15451;SDS011;7827;53.594;9.938;2022-11-21T02:45:59;28.97;;;18.53;;
15451;SDS011;7827;53.594;9.938;2022-11-21T02:48:28;26.70;;;18.13;;
15451;SDS011;7827;53.594;9.938;2022-11-21T02:50:57;26.57;;;18.90;;
15451;SDS011;7827;53.594;9.938;2022-11-21T02:53:25;28.50;;;19.00;;
15451;SDS011;7827;53.594;9.938;2022-11-21T02:55:55;29.00;;;19.73;;
15451;SDS011;7827;53.594;9.938;2022-11-21T02:58:23;26.80;;;19.33;;
15451;SDS011;7827;53.594;9.938;2022-11-21T03:00:52;25.30;;;18.13;;
15451;SDS011;7827;53.594;9.938;2022-11-21T03:03:21;28.07;;;18.13;;
15451;SDS011;7827;53.594;9.938;2022-11-21T03:05:50;24.83;;;17.10;;
15451;SDS011;7827;53.594;9.938;2022-11-21T03:08:20;25.63;;;17.83;;
15451;SDS011;7827;53.594;9.938;2022-11-21T03:10:49;25.50;;;18.40;;
15451;SDS011;7827;53.594;9.938;2022-11-21T03:13:18;26.13;;;17.10;;
15451;SDS011;7827;53.594;9.938;2022-11-21T03:15:47;22.73;;;16.37;;
15451;SDS011;7827;53.594;9.938;2022-11-21T03:18:15;23.17;;;16.10;;
15451;SDS011;7827;53.594;9.938;2022-11-21T03:20:44;22.63;;;16.07;;
15451;SDS011;7827;53.594;9.938;2022-11-21T03:23:12;23.07;;;15.87;;
15451;SDS011;7827;53.594;9.938;2022-11-21T03:25:41;22.30;;;15.50;;
15451;SDS011;7827;53.594;9.938;2022-11-21T03:28:09;26.43;;;16.20;;
15451;SDS011;7827;53.594;9.938;2022-11-21T03:30:38;22.17;;;15.70;;
15451;SDS011;7827;53.594;9.938;2022-11-21T03:33:07;26.80;;;16.40;;
15451;SDS011;7827;53.594;9.938;2022-11-21T03:35:35;19.77;;;15.13;;
15451;SDS011;7827;53.594;9.938;2022-11-21T03:38:03;20.93;;;14.77;;
15451;SDS011;7827;53.594;9.938;2022-11-21T03:40:32;21.77;;;15.23;;
15451;SDS011;7827;53.594;9.938;2022-11-21T03:43:02;22.27;;;14.77;;
15451;SDS011;7827;53.594;9.938;2022-11-21T03:45:32;18.80;;;14.07;;
15451;SDS011;7827;53.594;9.938;2022-11-21T03:48:01;21.30;;;15.03;;
15451;SDS011;7827;53.594;9.938;2022-11-21T03:50:30;22.73;;;14.13;;
15451;SDS011;7827;53.594;9.938;2022-11-21T03:52:58;21.03;;;14.83;;
15451;SDS011;7827;53.594;9.938;2022-11-21T03:55:27;21.20;;;15.50;;
15451;SDS011;7827;53.594;9.938;2022-11-21T03:57:55;20.53;;;15.77;;
15451;SDS011;7827;53.594;9.938;2022-11-21T04:00:23;22.67;;;15.97;;
15451;SDS011;7827;53.594;9.938;2022-11-21T04:02:51;24.27;;;16.87;;
15451;SDS011;7827;53.594;9.938;2022-11-21T04:05:21;22.27;;;15.87;;
15451;SDS011;7827;53.594;9.938;2022-11-21T04:07:49;28.07;;;17.87;;
15451;SDS011;7827;53.594;9.938;2022-11-21T04:10:19;28.40;;;18.63;;
15451;SDS011;7827;53.594;9.938;2022-11-21T04:12:47;29.20;;;19.07;;
15451;SDS011;7827;53.594;9.938;2022-11-21T04:15:15;26.60;;;17.67;;
15451;SDS011;7827;53.594;9.938;2022-11-21T04:17:44;24.57;;;17.70;;
15451;SDS011;7827;53.594;9.938;2022-11-21T04:20:12;26.30;;;18.23;;
15451;SDS011;7827;53.594;9.938;2022-11-21T04:22:43;29.03;;;18.43;;
15451;SDS011;7827;53.594;9.938;2022-11-21T04:25:11;26.53;;;18.53;;
15451;SDS011;7827;53.594;9.938;2022-11-21T04:27:40;28.30;;;18.47;;
15451;SDS011;7827;53.594;9.938;2022-11-21T04:30:08;28.63;;;18.30;;
15451;SDS011;7827;53.594;9.938;2022-11-21T04:32:38;28.57;;;19.60;;
15451;SDS011;7827;53.594;9.938;2022-11-21T04:35:06;29.23;;;19.30;;
15451;SDS011;7827;53.594;9.938;2022-11-21T04:37:37;30.37;;;19.57;;
15451;SDS011;7827;53.594;9.938;2022-11-21T04:40:08;27.00;;;18.47;;
15451;SDS011;7827;53.594;9.938;2022-11-21T04:42:39;28.60;;;18.23;;
15451;SDS011;7827;53.594;9.938;2022-11-21T04:45:08;24.63;;;17.37;;
15451;SDS011;7827;53.594;9.938;2022-11-21T04:47:37;28.43;;;19.17;;
15451;SDS011;7827;53.594;9.938;2022-11-21T04:50:08;29.87;;;18.57;;
15451;SDS011;7827;53.594;9.938;2022-11-21T04:52:37;26.83;;;18.23;;
15451;SDS011;7827;53.594;9.938;2022-11-21T04:55:08;28.03;;;19.33;;
15451;SDS011;7827;53.594;9.938;2022-11-21T04:57:36;28.10;;;19.27;;
15451;SDS011;7827;53.594;9.938;2022-11-21T05:00:05;27.33;;;18.13;;
15451;SDS011;7827;53.594;9.938;2022-11-21T05:02:35;27.10;;;18.10;;
15451;SDS011;7827;53.594;9.938;2022-11-21T05:05:03;27.60;;;17.90;;
15451;SDS011;7827;53.594;9.938;2022-11-21T05:07:32;24.93;;;17.50;;
15451;SDS011;7827;53.594;9.938;2022-11-21T05:10:01;24.67;;;17.07;;
15451;SDS011;7827;53.594;9.938;2022-11-21T05:12:31;27.20;;;18.87;;
15451;SDS011;7827;53.594;9.938;2022-11-21T05:15:17;24.77;;;17.47;;
15451;SDS011;7827;53.594;9.938;2022-11-21T05:17:50;26.83;;;17.70;;
15451;SDS011;7827;53.594;9.938;2022-11-21T05:20:18;27.00;;;17.43;;
15451;SDS011;7827;53.594;9.938;2022-11-21T05:22:49;26.83;;;18.33;;
15451;SDS011;7827;53.594;9.938;2022-11-21T05:25:18;26.87;;;17.23;;
15451;SDS011;7827;53.594;9.938;2022-11-21T05:27:48;25.20;;;17.57;;
15451;SDS011;7827;53.594;9.938;2022-11-21T05:30:16;24.13;;;17.40;;
15451;SDS011;7827;53.594;9.938;2022-11-21T05:32:45;25.23;;;17.47;;
15451;SDS011;7827;53.594;9.938;2022-11-21T05:35:13;27.43;;;18.67;;
15451;SDS011;7827;53.594;9.938;2022-11-21T05:37:41;26.13;;;18.30;;
15451;SDS011;7827;53.594;9.938;2022-11-21T05:40:10;29.83;;;18.60;;
15451;SDS011;7827;53.594;9.938;2022-11-21T05:42:39;34.00;;;20.37;;
15451;SDS011;7827;53.594;9.938;2022-11-21T05:45:27;39.20;;;21.50;;
15451;SDS011;7827;53.594;9.938;2022-11-21T05:47:55;44.10;;;22.63;;
15451;SDS011;7827;53.594;9.938;2022-11-21T05:50:24;45.73;;;22.20;;
15451;SDS011;7827;53.594;9.938;2022-11-21T05:52:52;39.60;;;23.10;;
15451;SDS011;7827;53.594;9.938;2022-11-21T05:55:20;46.33;;;22.87;;
15451;SDS011;7827;53.594;9.938;2022-11-21T05:57:48;46.33;;;22.30;;
15451;SDS011;7827;53.594;9.938;2022-11-21T06:00:17;70.90;;;22.90;;
15451;SDS011;7827;53.594;9.938;2022-11-21T06:02:47;43.57;;;21.87;;
15451;SDS011;7827;53.594;9.938;2022-11-21T06:05:33;44.43;;;21.30;;
15451;SDS011;7827;53.594;9.938;2022-11-21T06:08:02;43.90;;;22.93;;
15451;SDS011;7827;53.594;9.938;2022-11-21T06:10:30;40.50;;;21.80;;
15451;SDS011;7827;53.594;9.938;2022-11-21T06:12:59;42.03;;;23.27;;
15451;SDS011;7827;53.594;9.938;2022-11-21T06:15:28;36.47;;;21.03;;
15451;SDS011;7827;53.594;9.938;2022-11-21T06:18:00;31.40;;;20.23;;
15451;SDS011;7827;53.594;9.938;2022-11-21T06:20:28;37.70;;;20.83;;
15451;SDS011;7827;53.594;9.938;2022-11-21T06:22:56;33.50;;;20.20;;
15451;SDS011;7827;53.594;9.938;2022-11-21T06:25:24;33.80;;;20.07;;
15451;SDS011;7827;53.594;9.938;2022-11-21T06:27:52;30.53;;;20.57;;
15451;SDS011;7827;53.594;9.938;2022-11-21T06:30:21;30.77;;;19.97;;
15451;SDS011;7827;53.594;9.938;2022-11-21T06:32:49;30.37;;;20.63;;
15451;SDS011;7827;53.594;9.938;2022-11-21T06:35:19;31.13;;;20.17;;
15451;SDS011;7827;53.594;9.938;2022-11-21T06:37:47;34.20;;;21.13;;
15451;SDS011;7827;53.594;9.938;2022-11-21T06:40:19;28.40;;;18.60;;
15451;SDS011;7827;53.594;9.938;2022-11-21T06:42:47;26.53;;;18.87;;
15451;SDS011;7827;53.594;9.938;2022-11-21T06:45:15;28.07;;;18.37;;
15451;SDS011;7827;53.594;9.938;2022-11-21T06:47:44;29.10;;;19.70;;
15451;SDS011;7827;53.594;9.938;2022-11-21T06:50:12;28.17;;;18.70;;
15451;SDS011;7827;53.594;9.938;2022-11-21T06:52:42;28.67;;;19.30;;
15451;SDS011;7827;53.594;9.938;2022-11-21T06:55:10;29.30;;;19.40;;
15451;SDS011;7827;53.594;9.938;2022-11-21T06:57:38;31.77;;;19.77;;
15451;SDS011;7827;53.594;9.938;2022-11-21T07:00:07;31.03;;;20.67;;
15451;SDS011;7827;53.594;9.938;2022-11-21T07:02:37;30.77;;;20.13;;
15451;SDS011;7827;53.594;9.938;2022-11-21T07:05:05;29.20;;;19.27;;
15451;SDS011;7827;53.594;9.938;2022-11-21T07:07:34;29.43;;;19.80;;
15451;SDS011;7827;53.594;9.938;2022-11-21T07:10:04;28.30;;;18.53;;
15451;SDS011;7827;53.594;9.938;2022-11-21T07:12:34;30.60;;;18.90;;
15451;SDS011;7827;53.594;9.938;2022-11-21T07:15:20;29.57;;;18.93;;
15451;SDS011;7827;53.594;9.938;2022-11-21T07:17:48;29.13;;;19.27;;
15451;SDS011;7827;53.594;9.938;2022-11-21T07:20:16;27.70;;;18.37;;
15451;SDS011;7827;53.594;9.938;2022-11-21T07:22:45;31.17;;;20.17;;
15451;SDS011;7827;53.594;9.938;2022-11-21T07:25:14;31.00;;;19.97;;
15451;SDS011;7827;53.594;9.938;2022-11-21T07:27:43;27.93;;;19.10;;
15451;SDS011;7827;53.594;9.938;2022-11-21T07:30:12;29.10;;;18.27;;
15451;SDS011;7827;53.594;9.938;2022-11-21T07:32:41;32.97;;;20.90;;
15451;SDS011;7827;53.594;9.938;2022-11-21T07:35:09;29.33;;;20.40;;
15451;SDS011;7827;53.594;9.938;2022-11-21T07:37:38;31.03;;;20.27;;
15451;SDS011;7827;53.594;9.938;2022-11-21T07:40:06;30.60;;;19.80;;
15451;SDS011;7827;53.594;9.938;2022-11-21T07:42:37;28.70;;;19.50;;
15451;SDS011;7827;53.594;9.938;2022-11-21T07:45:05;33.83;;;19.70;;
15451;SDS011;7827;53.594;9.938;2022-11-21T07:47:35;32.03;;;19.20;;
15451;SDS011;7827;53.594;9.938;2022-11-21T07:50:04;26.40;;;18.37;;
15451;SDS011;7827;53.594;9.938;2022-11-21T07:52:35;28.67;;;18.47;;
15451;SDS011;7827;53.594;9.938;2022-11-21T07:55:04;27.30;;;18.13;;
15451;SDS011;7827;53.594;9.938;2022-11-21T07:57:34;30.43;;;17.87;;
15451;SDS011;7827;53.594;9.938;2022-11-21T08:00:04;30.90;;;19.90;;
15451;SDS011;7827;53.594;9.938;2022-11-21T08:02:33;28.63;;;19.10;;
15451;SDS011;7827;53.594;9.938;2022-11-21T08:05:02;28.57;;;19.23;;
15451;SDS011;7827;53.594;9.938;2022-11-21T08:07:31;27.37;;;17.60;;
15451;SDS011;7827;53.594;9.938;2022-11-21T08:09:59;25.50;;;17.93;;
15451;SDS011;7827;53.594;9.938;2022-11-21T08:12:28;26.37;;;18.00;;
15451;SDS011;7827;53.594;9.938;2022-11-21T08:14:59;26.23;;;17.47;;
15451;SDS011;7827;53.594;9.938;2022-11-21T08:17:28;27.87;;;18.47;;
15451;SDS011;7827;53.594;9.938;2022-11-21T08:19:57;27.33;;;18.07;;
15451;SDS011;7827;53.594;9.938;2022-11-21T08:22:26;24.70;;;17.50;;
15451;SDS011;7827;53.594;9.938;2022-11-21T08:24:54;25.70;;;18.03;;
15451;SDS011;7827;53.594;9.938;2022-11-21T08:27:22;26.30;;;17.80;;
15451;SDS011;7827;53.594;9.938;2022-11-21T08:29:51;29.10;;;18.53;;
15451;SDS011;7827;53.594;9.938;2022-11-21T08:32:19;27.50;;;17.63;;
15451;SDS011;7827;53.594;9.938;2022-11-21T08:34:48;30.30;;;17.87;;
15451;SDS011;7827;53.594;9.938;2022-11-21T08:37:17;27.97;;;17.83;;
15451;SDS011;7827;53.594;9.938;2022-11-21T08:39:45;27.87;;;18.10;;
15451;SDS011;7827;53.594;9.938;2022-11-21T08:42:14;27.87;;;19.03;;
15451;SDS011;7827;53.594;9.938;2022-11-21T08:44:42;26.63;;;18.40;;
15451;SDS011;7827;53.594;9.938;2022-11-21T08:47:10;27.13;;;18.87;;
15451;SDS011;7827;53.594;9.938;2022-11-21T08:49:39;29.60;;;19.53;;
15451;SDS011;7827;53.594;9.938;2022-11-21T08:52:09;31.27;;;20.30;;
15451;SDS011;7827;53.594;9.938;2022-11-21T08:54:37;27.97;;;19.20;;
15451;SDS011;7827;53.594;9.938;2022-11-21T08:57:05;29.23;;;19.00;;
15451;SDS011;7827;53.594;9.938;2022-11-21T08:59:34;28.47;;;18.50;;
15451;SDS011;7827;53.594;9.938;2022-11-21T09:02:02;27.90;;;18.23;;
15451;SDS011;7827;53.594;9.938;2022-11-21T09:04:30;26.07;;;17.17;;
15451;SDS011;7827;53.594;9.938;2022-11-21T09:06:59;24.07;;;16.60;;
15451;SDS011;7827;53.594;9.938;2022-11-21T09:09:28;26.37;;;16.90;;
15451;SDS011;7827;53.594;9.938;2022-11-21T09:11:57;24.77;;;16.73;;
15451;SDS011;7827;53.594;9.938;2022-11-21T09:14:26;26.53;;;17.90;;
15451;SDS011;7827;53.594;9.938;2022-11-21T09:17:12;25.63;;;17.73;;
15451;SDS011;7827;53.594;9.938;2022-11-21T09:19:58;27.47;;;18.73;;
15451;SDS011;7827;53.594;9.938;2022-11-21T09:22:27;26.20;;;18.33;;
15451;SDS011;7827;53.594;9.938;2022-11-21T09:24:57;28.50;;;18.37;;
15451;SDS011;7827;53.594;9.938;2022-11-21T09:27:25;30.90;;;19.30;;
15451;SDS011;7827;53.594;9.938;2022-11-21T09:29:54;30.33;;;19.07;;
15451;SDS011;7827;53.594;9.938;2022-11-21T09:32:22;27.10;;;18.83;;
15451;SDS011;7827;53.594;9.938;2022-11-21T09:34:51;27.33;;;18.40;;
15451;SDS011;7827;53.594;9.938;2022-11-21T09:37:19;28.90;;;19.03;;
15451;SDS011;7827;53.594;9.938;2022-11-21T09:39:47;29.43;;;20.00;;
15451;SDS011;7827;53.594;9.938;2022-11-21T09:42:27;31.67;;;20.37;;
15451;SDS011;7827;53.594;9.938;2022-11-21T09:45:24;31.50;;;18.70;;
15451;SDS011;7827;53.594;9.938;2022-11-21T09:47:56;29.03;;;19.73;;
15451;SDS011;7827;53.594;9.938;2022-11-21T09:50:26;30.63;;;20.27;;
15451;SDS011;7827;53.594;9.938;2022-11-21T09:53:00;26.17;;;18.93;;
15451;SDS011;7827;53.594;9.938;2022-11-21T09:55:39;28.97;;;18.50;;
15451;SDS011;7827;53.594;9.938;2022-11-21T09:58:19;30.37;;;18.03;;
15451;SDS011;7827;53.594;9.938;2022-11-21T10:00:56;25.70;;;17.60;;
15451;SDS011;7827;53.594;9.938;2022-11-21T10:03:26;24.63;;;16.47;;
15451;SDS011;7827;53.594;9.938;2022-11-21T10:06:11;23.37;;;16.50;;
15451;SDS011;7827;53.594;9.938;2022-11-21T10:08:49;27.13;;;16.97;;
15451;SDS011;7827;53.594;9.938;2022-11-21T10:11:32;24.93;;;16.60;;
15451;SDS011;7827;53.594;9.938;2022-11-21T10:14:39;24.20;;;15.60;;
15451;SDS011;7827;53.594;9.938;2022-11-21T10:17:21;24.03;;;16.57;;
15451;SDS011;7827;53.594;9.938;2022-11-21T10:20:08;23.83;;;14.67;;
15451;SDS011;7827;53.594;9.938;2022-11-21T10:22:57;24.20;;;16.23;;
15451;SDS011;7827;53.594;9.938;2022-11-21T10:25:54;23.03;;;15.60;;
15451;SDS011;7827;53.594;9.938;2022-11-21T10:28:25;19.70;;;13.67;;
15451;SDS011;7827;53.594;9.938;2022-11-21T10:31:07;22.07;;;15.40;;
15451;SDS011;7827;53.594;9.938;2022-11-21T10:33:40;23.57;;;15.70;;
15451;SDS011;7827;53.594;9.938;2022-11-21T10:36:11;22.67;;;15.37;;
15451;SDS011;7827;53.594;9.938;2022-11-21T10:38:52;20.93;;;14.57;;
15451;SDS011;7827;53.594;9.938;2022-11-21T10:41:32;24.40;;;16.60;;
15451;SDS011;7827;53.594;9.938;2022-11-21T10:44:11;25.07;;;16.90;;
15451;SDS011;7827;53.594;9.938;2022-11-21T10:47:14;25.37;;;17.17;;
15451;SDS011;7827;53.594;9.938;2022-11-21T10:50:03;23.90;;;16.50;;
15451;SDS011;7827;53.594;9.938;2022-11-21T10:52:59;23.30;;;16.30;;
15451;SDS011;7827;53.594;9.938;2022-11-21T10:55:55;26.67;;;17.43;;
15451;SDS011;7827;53.594;9.938;2022-11-21T10:58:32;24.03;;;16.67;;
15451;SDS011;7827;53.594;9.938;2022-11-21T11:01:17;26.57;;;17.40;;
15451;SDS011;7827;53.594;9.938;2022-11-21T11:04:07;22.97;;;15.63;;
15451;SDS011;7827;53.594;9.938;2022-11-21T11:06:54;23.33;;;16.20;;
15451;SDS011;7827;53.594;9.938;2022-11-21T11:09:26;27.33;;;18.00;;
15451;SDS011;7827;53.594;9.938;2022-11-21T11:15:16;24.67;;;16.23;;
15451;SDS011;7827;53.594;9.938;2022-11-21T11:17:51;25.67;;;16.10;;
15451;SDS011;7827;53.594;9.938;2022-11-21T11:20:35;26.83;;;16.23;;
15451;SDS011;7827;53.594;9.938;2022-11-21T11:23:15;25.07;;;16.07;;
15451;SDS011;7827;53.594;9.938;2022-11-21T11:25:55;22.77;;;15.37;;
15451;SDS011;7827;53.594;9.938;2022-11-21T11:28:25;23.37;;;15.50;;
15451;SDS011;7827;53.594;9.938;2022-11-21T11:31:02;21.80;;;14.63;;
15451;SDS011;7827;53.594;9.938;2022-11-21T11:33:34;26.37;;;15.60;;
15451;SDS011;7827;53.594;9.938;2022-11-21T11:36:16;23.03;;;15.10;;
15451;SDS011;7827;53.594;9.938;2022-11-21T11:39:08;27.23;;;15.10;;
15451;SDS011;7827;53.594;9.938;2022-11-21T11:41:59;22.53;;;14.87;;
15451;SDS011;7827;53.594;9.938;2022-11-21T11:45:26;24.97;;;14.47;;
15451;SDS011;7827;53.594;9.938;2022-11-21T11:48:25;29.77;;;15.33;;
15451;SDS011;7827;53.594;9.938;2022-11-21T11:50:59;20.90;;;14.43;;
15451;SDS011;7827;53.594;9.938;2022-11-21T11:53:32;21.37;;;13.80;;
15451;SDS011;7827;53.594;9.938;2022-11-21T11:56:12;21.67;;;13.70;;
15451;SDS011;7827;53.594;9.938;2022-11-21T11:58:48;20.07;;;13.80;;
15451;SDS011;7827;53.594;9.938;2022-11-21T12:01:25;20.80;;;14.50;;
15451;SDS011;7827;53.594;9.938;2022-11-21T12:04:04;20.67;;;14.07;;
15451;SDS011;7827;53.594;9.938;2022-11-21T12:06:41;18.23;;;12.47;;
15451;SDS011;7827;53.594;9.938;2022-11-21T12:09:40;21.07;;;13.07;;
15451;SDS011;7827;53.594;9.938;2022-11-21T12:12:25;17.67;;;12.23;;
15451;SDS011;7827;53.594;9.938;2022-11-21T12:15:07;15.03;;;11.33;;
15451;SDS011;7827;53.594;9.938;2022-11-21T12:18:07;12.57;;;10.17;;
15451;SDS011;7827;53.594;9.938;2022-11-21T12:20:49;15.73;;;11.03;;
15451;SDS011;7827;53.594;9.938;2022-11-21T12:23:26;17.57;;;11.33;;
15451;SDS011;7827;53.594;9.938;2022-11-21T12:26:06;14.30;;;10.57;;
15451;SDS011;7827;53.594;9.938;2022-11-21T12:28:58;14.40;;;10.13;;
15451;SDS011;7827;53.594;9.938;2022-11-21T12:31:52;13.93;;;9.80;;
15451;SDS011;7827;53.594;9.938;2022-11-21T12:34:47;17.80;;;10.60;;
15451;SDS011;7827;53.594;9.938;2022-11-21T12:37:46;14.90;;;10.27;;
15451;SDS011;7827;53.594;9.938;2022-11-21T12:40:35;15.13;;;9.33;;
15451;SDS011;7827;53.594;9.938;2022-11-21T12:43:21;12.83;;;8.80;;
15451;SDS011;7827;53.594;9.938;2022-11-21T12:46:01;12.17;;;8.37;;
15451;SDS011;7827;53.594;9.938;2022-11-21T12:48:44;14.20;;;8.90;;
15451;SDS011;7827;53.594;9.938;2022-11-21T12:51:49;11.20;;;8.17;;
15451;SDS011;7827;53.594;9.938;2022-11-21T12:58:04;12.47;;;9.30;;
15451;SDS011;7827;53.594;9.938;2022-11-21T13:00:54;11.20;;;8.43;;
15451;SDS011;7827;53.594;9.938;2022-11-21T13:03:49;14.03;;;8.50;;
15451;SDS011;7827;53.594;9.938;2022-11-21T13:06:26;11.07;;;8.47;;
15451;SDS011;7827;53.594;9.938;2022-11-21T13:08:59;12.63;;;8.33;;
15451;SDS011;7827;53.594;9.938;2022-11-21T13:11:36;11.10;;;8.87;;
15451;SDS011;7827;53.594;9.938;2022-11-21T13:14:27;14.20;;;8.83;;
15451;SDS011;7827;53.594;9.938;2022-11-21T13:17:13;11.03;;;8.23;;
15451;SDS011;7827;53.594;9.938;2022-11-21T13:20:12;12.27;;;7.57;;
15451;SDS011;7827;53.594;9.938;2022-11-21T13:22:50;10.30;;;6.13;;
15451;SDS011;7827;53.594;9.938;2022-11-21T13:25:39;9.00;;;6.30;;
15451;SDS011;7827;53.594;9.938;2022-11-21T13:28:24;9.83;;;7.13;;
15451;SDS011;7827;53.594;9.938;2022-11-21T13:33:59;9.83;;;6.97;;
15451;SDS011;7827;53.594;9.938;2022-11-21T13:36:41;9.23;;;7.10;;
15451;SDS011;7827;53.594;9.938;2022-11-21T13:42:14;11.93;;;7.63;;
15451;SDS011;7827;53.594;9.938;2022-11-21T13:51:34;9.70;;;7.33;;
15451;SDS011;7827;53.594;9.938;2022-11-21T13:54:39;12.90;;;8.17;;
15451;SDS011;7827;53.594;9.938;2022-11-21T13:57:47;11.53;;;7.57;;
15451;SDS011;7827;53.594;9.938;2022-11-21T14:00:35;9.43;;;7.30;;
15451;SDS011;7827;53.594;9.938;2022-11-21T14:03:30;9.33;;;7.00;;
15451;SDS011;7827;53.594;9.938;2022-11-21T14:09:21;11.53;;;7.33;;
15451;SDS011;7827;53.594;9.938;2022-11-21T14:11:54;11.83;;;7.80;;
15451;SDS011;7827;53.594;9.938;2022-11-21T14:14:32;13.63;;;8.83;;
15451;SDS011;7827;53.594;9.938;2022-11-21T14:17:13;12.50;;;8.47;;
15451;SDS011;7827;53.594;9.938;2022-11-21T14:20:06;9.33;;;7.67;;
15451;SDS011;7827;53.594;9.938;2022-11-21T14:22:46;13.57;;;9.30;;
15451;SDS011;7827;53.594;9.938;2022-11-21T14:25:23;10.90;;;8.90;;
15451;SDS011;7827;53.594;9.938;2022-11-21T14:27:59;11.80;;;8.57;;
15451;SDS011;7827;53.594;9.938;2022-11-21T14:30:33;13.07;;;9.10;;
15451;SDS011;7827;53.594;9.938;2022-11-21T14:33:23;14.97;;;9.80;;
15451;SDS011;7827;53.594;9.938;2022-11-21T14:35:56;16.57;;;10.67;;
15451;SDS011;7827;53.594;9.938;2022-11-21T14:38:30;15.17;;;10.50;;
15451;SDS011;7827;53.594;9.938;2022-11-21T14:41:23;14.47;;;10.43;;
15451;SDS011;7827;53.594;9.938;2022-11-21T14:44:13;15.00;;;10.00;;
15451;SDS011;7827;53.594;9.938;2022-11-21T14:46:45;14.50;;;10.40;;
15451;SDS011;7827;53.594;9.938;2022-11-21T14:49:22;15.00;;;10.77;;
15451;SDS011;7827;53.594;9.938;2022-11-21T14:52:00;18.50;;;11.13;;
15451;SDS011;7827;53.594;9.938;2022-11-21T14:54:44;14.33;;;10.73;;
15451;SDS011;7827;53.594;9.938;2022-11-21T14:57:37;14.00;;;9.67;;
15451;SDS011;7827;53.594;9.938;2022-11-21T15:00:10;18.40;;;11.20;;
15451;SDS011;7827;53.594;9.938;2022-11-21T15:03:14;16.77;;;10.60;;
15451;SDS011;7827;53.594;9.938;2022-11-21T15:05:48;14.73;;;10.43;;
15451;SDS011;7827;53.594;9.938;2022-11-21T15:08:32;15.13;;;9.97;;
15451;SDS011;7827;53.594;9.938;2022-11-21T15:11:24;15.80;;;10.80;;
15451;SDS011;7827;53.594;9.938;2022-11-21T15:14:03;16.17;;;10.50;;
15451;SDS011;7827;53.594;9.938;2022-11-21T15:16:44;15.10;;;10.37;;
15451;SDS011;7827;53.594;9.938;2022-11-21T15:19:17;15.57;;;10.67;;
15451;SDS011;7827;53.594;9.938;2022-11-21T15:21:48;16.17;;;10.67;;
15451;SDS011;7827;53.594;9.938;2022-11-21T15:24:26;18.07;;;11.03;;
15451;SDS011;7827;53.594;9.938;2022-11-21T15:27:00;22.70;;;11.80;;
15451;SDS011;7827;53.594;9.938;2022-11-21T15:29:59;16.57;;;10.53;;
15451;SDS011;7827;53.594;9.938;2022-11-21T15:32:29;15.00;;;10.27;;
15451;SDS011;7827;53.594;9.938;2022-11-21T15:34:57;16.77;;;11.13;;
15451;SDS011;7827;53.594;9.938;2022-11-21T15:37:26;15.87;;;10.80;;
15451;SDS011;7827;53.594;9.938;2022-11-21T15:39:55;15.60;;;10.03;;